createdAt,value
2018-11-28T00:00:50.838Z,18.10
2018-11-28T00:03:18.962Z,17.93
2018-11-28T00:05:47.105Z,17.53
2018-11-28T00:08:15.250Z,17.90
2018-11-28T00:10:43.436Z,17.50
2018-11-28T00:13:11.641Z,18.00
2018-11-28T00:15:39.803Z,18.83
2018-11-28T00:18:07.973Z,17.33
2018-11-28T00:20:36.081Z,18.73
2018-11-28T00:23:04.334Z,18.17
2018-11-28T00:25:32.504Z,18.37
2018-11-28T00:28:00.639Z,18.30
2018-11-28T00:30:28.969Z,19.17
2018-11-28T00:32:57.106Z,19.60
2018-11-28T00:35:25.655Z,18.73
2018-11-28T00:37:53.794Z,19.40
2018-11-28T00:40:23.005Z,18.27
2018-11-28T00:42:51.126Z,18.90
2018-11-28T00:45:22.675Z,19.10
2018-11-28T00:47:50.804Z,18.43
2018-11-28T00:50:21.615Z,18.77
2018-11-28T00:52:49.768Z,19.47
2018-11-28T00:55:18.504Z,19.20
2018-11-28T00:57:46.777Z,20.30
2018-11-28T01:00:16.926Z,18.80
2018-11-28T01:02:45.232Z,18.77
2018-11-28T01:05:13.664Z,19.50
2018-11-28T01:07:42.434Z,19.93
2018-11-28T01:10:16.698Z,19.83
2018-11-28T01:12:45.040Z,18.57
2018-11-28T01:15:13.994Z,18.33
2018-11-28T01:17:42.182Z,19.50
2018-11-28T01:20:13.333Z,19.77
2018-11-28T01:22:41.528Z,20.07
2018-11-28T01:25:10.894Z,20.07
2018-11-28T01:27:39.038Z,19.83
2018-11-28T01:30:10.854Z,20.80
2018-11-28T01:32:39.000Z,19.00
2018-11-28T01:35:09.825Z,19.57
2018-11-28T01:37:38.659Z,20.33
2018-11-28T01:40:09.309Z,19.30
2018-11-28T01:42:37.421Z,19.70
2018-11-28T01:45:06.026Z,18.60
2018-11-28T01:47:34.165Z,20.13
2018-11-28T01:50:02.316Z,20.03
2018-11-28T01:52:30.481Z,20.97
2018-11-28T01:54:58.609Z,20.33
2018-11-28T01:57:26.774Z,20.87
2018-11-28T01:59:55.156Z,20.43
2018-11-28T02:02:23.351Z,19.73
2018-11-28T02:04:51.485Z,20.47
2018-11-28T02:07:19.977Z,21.27
2018-11-28T02:09:48.116Z,19.83
2018-11-28T02:12:16.334Z,20.10
2018-11-28T02:14:44.510Z,20.43
2018-11-28T02:17:12.653Z,19.73
2018-11-28T02:19:40.773Z,19.90
2018-11-28T02:22:08.949Z,19.37
2018-11-28T02:24:37.066Z,20.17
2018-11-28T02:27:05.369Z,19.27
2018-11-28T02:29:33.518Z,19.80
2018-11-28T02:32:01.645Z,19.93
2018-11-28T02:34:29.796Z,20.47
2018-11-28T02:36:57.921Z,19.90
2018-11-28T02:39:26.087Z,20.70
2018-11-28T02:41:54.228Z,19.73
2018-11-28T02:44:22.360Z,19.87
2018-11-28T02:46:50.490Z,19.57
2018-11-28T02:49:18.942Z,19.70
2018-11-28T02:51:47.067Z,20.37
2018-11-28T02:54:15.192Z,21.90
2018-11-28T02:56:43.310Z,18.67
2018-11-28T02:59:11.416Z,19.50
2018-11-28T03:01:39.577Z,19.27
2018-11-28T03:04:07.695Z,20.73
2018-11-28T03:06:35.824Z,19.87
2018-11-28T03:09:05.357Z,18.57
2018-11-28T03:11:33.672Z,19.37
2018-11-28T03:14:01.796Z,19.20
2018-11-28T03:16:30.010Z,19.67
2018-11-28T03:18:58.123Z,18.93
2018-11-28T03:21:26.246Z,19.53
2018-11-28T03:23:54.407Z,17.57
2018-11-28T03:26:22.514Z,19.57
2018-11-28T03:28:50.922Z,19.33
2018-11-28T03:31:19.177Z,19.70
2018-11-28T03:33:47.251Z,19.27
2018-11-28T03:36:15.412Z,18.57
2018-11-28T03:38:43.557Z,19.30
2018-11-28T03:41:11.680Z,19.17
2018-11-28T03:43:39.848Z,19.27
2018-11-28T03:46:07.964Z,19.17
2018-11-28T03:48:36.274Z,20.50
2018-11-28T03:51:04.421Z,19.47
2018-11-28T03:53:32.542Z,20.27
2018-11-28T03:56:00.647Z,19.33
2018-11-28T03:58:29.155Z,19.30
2018-11-28T04:00:57.282Z,19.90
2018-11-28T04:03:25.426Z,20.13
2018-11-28T04:05:53.761Z,21.20
2018-11-28T04:08:21.872Z,20.10
2018-11-28T04:10:49.986Z,19.70
2018-11-28T04:13:18.117Z,20.77
2018-11-28T04:15:46.212Z,20.20
2018-11-28T04:18:14.360Z,19.23
2018-11-28T04:20:42.529Z,19.60
2018-11-28T04:23:10.653Z,20.47
2018-11-28T04:25:38.825Z,20.37
2018-11-28T04:28:06.997Z,20.70
2018-11-28T04:30:35.121Z,20.73
2018-11-28T04:33:03.279Z,21.60
2018-11-28T04:35:31.397Z,20.67
2018-11-28T04:37:59.503Z,19.67
2018-11-28T04:40:27.658Z,19.57
2018-11-28T04:42:55.797Z,20.80
2018-11-28T04:45:24.668Z,20.70
2018-11-28T04:47:53.957Z,20.77
2018-11-28T04:50:22.068Z,21.30
2018-11-28T04:52:50.189Z,21.30
2018-11-28T04:55:19.196Z,21.07
2018-11-28T04:57:47.673Z,22.20
2018-11-28T05:00:22.033Z,21.67
2018-11-28T05:02:50.528Z,21.83
2018-11-28T05:05:18.674Z,20.40
2018-11-28T05:07:47.663Z,22.60
2018-11-28T05:10:16.646Z,21.97
2018-11-28T05:12:44.978Z,21.80
2018-11-28T05:15:14.174Z,21.47
2018-11-28T05:17:42.759Z,21.80
2018-11-28T05:20:13.089Z,23.03
2018-11-28T05:22:41.231Z,21.97
2018-11-28T05:25:12.336Z,21.83
2018-11-28T05:27:40.453Z,20.63
2018-11-28T05:30:12.013Z,21.20
2018-11-28T05:32:40.144Z,20.97
2018-11-28T05:35:10.637Z,21.50
2018-11-28T05:37:38.901Z,20.10
2018-11-28T05:40:09.734Z,21.42
2018-11-28T05:42:38.116Z,21.80
2018-11-28T05:45:10.433Z,21.30
2018-11-28T05:47:38.548Z,20.53
2018-11-28T05:50:09.100Z,20.52
2018-11-28T05:52:37.347Z,20.83
2018-11-28T05:55:07.078Z,21.30
2018-11-28T05:57:35.191Z,19.97
2018-11-28T06:00:03.452Z,20.27
2018-11-28T06:02:31.565Z,20.43
2018-11-28T06:04:59.684Z,20.63
2018-11-28T06:07:28.001Z,21.03
2018-11-28T06:09:56.125Z,20.67
2018-11-28T06:12:24.261Z,20.50
2018-11-28T06:14:52.696Z,20.63
2018-11-28T06:17:20.796Z,20.70
2018-11-28T06:19:49.148Z,20.27
2018-11-28T06:22:17.304Z,20.90
2018-11-28T06:24:45.480Z,20.70
2018-11-28T06:27:13.597Z,21.67
2018-11-28T06:29:41.745Z,20.63
2018-11-28T06:32:09.885Z,21.40
2018-11-28T06:34:37.984Z,20.57
2018-11-28T06:37:06.365Z,20.83
2018-11-28T06:39:34.505Z,20.33
2018-11-28T06:42:02.615Z,20.67
2018-11-28T06:44:30.999Z,20.97
2018-11-28T06:46:59.140Z,21.23
2018-11-28T06:49:27.271Z,20.23
2018-11-28T06:51:55.512Z,20.20
2018-11-28T06:54:23.660Z,20.30
2018-11-28T06:56:51.771Z,19.83
2018-11-28T06:59:19.935Z,19.57
2018-11-28T07:01:48.108Z,20.93
2018-11-28T07:04:16.322Z,19.47
2018-11-28T07:06:44.497Z,20.70
2018-11-28T07:09:12.701Z,20.30
2018-11-28T07:11:40.820Z,19.43
2018-11-28T07:14:09.016Z,19.60
2018-11-28T07:16:37.253Z,19.13
2018-11-28T07:19:08.782Z,20.37
2018-11-28T07:21:37.105Z,20.10
2018-11-28T07:24:06.089Z,19.50
2018-11-28T07:26:34.329Z,19.67
2018-11-28T07:29:02.521Z,20.67
2018-11-28T07:31:30.712Z,20.43
2018-11-28T07:33:59.052Z,20.57
2018-11-28T07:36:27.164Z,21.37
2018-11-28T07:38:55.367Z,20.70
2018-11-28T07:41:25.015Z,21.17
2018-11-28T07:43:53.112Z,21.73
2018-11-28T07:46:21.309Z,21.70
2018-11-28T07:48:52.118Z,22.10
2018-11-28T07:51:20.247Z,22.17
2018-11-28T07:53:48.521Z,21.63
2018-11-28T07:56:16.772Z,21.77
2018-11-28T07:58:44.893Z,22.63
2018-11-28T08:01:13.270Z,21.07
2018-11-28T08:03:41.475Z,22.57
2018-11-28T08:06:09.641Z,22.77
2018-11-28T08:08:38.611Z,21.20
2018-11-28T08:11:07.433Z,21.93
2018-11-28T08:13:35.722Z,21.93
2018-11-28T08:16:03.876Z,21.43
2018-11-28T08:18:32.067Z,21.77
2018-11-28T08:21:01.104Z,22.53
2018-11-28T08:23:29.373Z,22.03
2018-11-28T08:25:57.495Z,21.60
2018-11-28T08:28:25.666Z,21.40
2018-11-28T08:30:53.830Z,22.43
2018-11-28T08:33:21.965Z,22.23
2018-11-28T08:35:50.141Z,22.70
2018-11-28T08:38:18.360Z,21.83
2018-11-28T08:40:46.520Z,21.00
2018-11-28T08:43:14.647Z,22.60
2018-11-28T08:45:42.838Z,21.93
2018-11-28T08:48:15.312Z,21.83
2018-11-28T08:50:43.701Z,22.37
2018-11-28T08:53:11.824Z,21.80
2018-11-28T08:55:39.957Z,21.50
2018-11-28T08:58:08.137Z,22.97
2018-11-28T09:00:36.294Z,21.27
2018-11-28T09:03:04.451Z,21.13
2018-11-28T09:05:32.661Z,21.73
2018-11-28T09:08:00.792Z,20.13
2018-11-28T09:10:28.943Z,21.53
2018-11-28T09:12:57.362Z,20.27
2018-11-28T09:15:27.294Z,21.20
2018-11-28T09:17:55.753Z,22.07
2018-11-28T09:20:23.984Z,21.13
2018-11-28T09:22:52.153Z,20.73
2018-11-28T09:25:20.741Z,19.67
2018-11-28T09:27:51.134Z,21.47
2018-11-28T09:30:19.981Z,20.30
2018-11-28T09:32:49.010Z,20.07
2018-11-28T09:35:17.485Z,20.67
2018-11-28T09:37:46.153Z,20.30
2018-11-28T09:40:15.154Z,19.90
2018-11-28T09:42:43.292Z,19.60
2018-11-28T09:45:12.681Z,21.20
2018-11-28T09:47:40.804Z,19.87
2018-11-28T09:50:12.362Z,21.20
2018-11-28T09:52:40.541Z,21.60
2018-11-28T09:55:10.495Z,19.33
2018-11-28T09:57:38.685Z,18.77
2018-11-28T10:00:10.774Z,20.08
2018-11-28T10:02:39.185Z,18.53
2018-11-28T10:05:10.002Z,19.12
2018-11-28T10:07:38.164Z,18.30
2018-11-28T10:10:09.327Z,18.13
2018-11-28T10:12:37.493Z,19.00
2018-11-28T10:15:11.224Z,19.17
2018-11-28T10:17:39.467Z,18.03
2018-11-28T10:20:08.673Z,18.83
2018-11-28T10:22:36.834Z,19.20
2018-11-28T10:25:05.726Z,18.97
2018-11-28T10:27:33.860Z,18.43
2018-11-28T10:30:02.186Z,18.10
2018-11-28T10:32:30.374Z,18.70
2018-11-28T10:34:58.488Z,17.17
2018-11-28T10:37:26.643Z,17.93
2018-11-28T10:39:54.787Z,18.00
2018-11-28T10:42:22.957Z,17.67
2018-11-28T10:44:51.132Z,18.90
2018-11-28T10:47:19.336Z,17.97
2018-11-28T10:49:47.469Z,18.10
2018-11-28T10:52:15.647Z,17.23
2018-11-28T10:54:43.969Z,18.60
2018-11-28T10:57:12.082Z,17.37
2018-11-28T10:59:40.267Z,17.00
2018-11-28T11:02:13.915Z,17.17
2018-11-28T11:04:47.387Z,15.90
2018-11-28T11:07:20.886Z,16.60
2018-11-28T11:09:54.474Z,16.87
2018-11-28T11:12:28.193Z,16.60
2018-11-28T11:14:56.346Z,16.13
2018-11-28T11:17:24.624Z,16.83
2018-11-28T11:19:52.744Z,16.80
2018-11-28T11:22:20.878Z,16.67
2018-11-28T11:24:49.018Z,16.20
2018-11-28T11:29:51.851Z,17.93
2018-11-28T11:32:20.061Z,16.20
2018-11-28T11:34:48.468Z,16.83
2018-11-28T11:37:16.592Z,17.40
2018-11-28T11:39:44.876Z,16.60
2018-11-28T11:42:13.028Z,16.20
2018-11-28T11:44:41.492Z,17.17
2018-11-28T11:47:09.618Z,17.03
2018-11-28T11:49:37.766Z,16.60
2018-11-28T11:52:05.969Z,16.97
2018-11-28T11:54:35.118Z,15.73
2018-11-28T11:57:03.367Z,17.77
2018-11-28T11:59:31.519Z,17.00
2018-11-28T12:01:59.655Z,16.93
2018-11-28T12:04:27.825Z,17.10
2018-11-28T12:06:55.984Z,15.97
2018-11-28T12:09:24.143Z,15.87
2018-11-28T12:11:52.274Z,15.67
2018-11-28T12:14:20.465Z,15.87
2018-11-28T12:16:48.610Z,16.60
2018-11-28T12:19:16.738Z,15.53
2018-11-28T12:21:44.906Z,16.07
2018-11-28T12:24:13.124Z,15.13
2018-11-28T12:26:41.273Z,15.27
2018-11-28T12:29:09.504Z,14.53
2018-11-28T12:31:37.723Z,14.77
2018-11-28T12:34:06.097Z,16.27
2018-11-28T12:36:34.300Z,14.57
2018-11-28T12:39:02.461Z,14.90
2018-11-28T12:41:30.631Z,15.13
2018-11-28T12:43:58.893Z,14.53
2018-11-28T12:46:27.054Z,15.23
2018-11-28T12:48:55.431Z,14.23
2018-11-28T12:51:23.592Z,14.83
2018-11-28T12:53:51.741Z,15.33
2018-11-28T12:56:19.886Z,14.10
2018-11-28T12:58:48.084Z,14.43
2018-11-28T13:01:16.421Z,14.77
2018-11-28T13:03:44.562Z,13.83
2018-11-28T13:06:12.719Z,13.90
2018-11-28T13:08:41.133Z,15.00
2018-11-28T13:11:09.265Z,13.97
2018-11-28T13:13:37.443Z,14.93
2018-11-28T13:16:06.288Z,13.90
2018-11-28T13:18:34.438Z,14.63
2018-11-28T13:21:09.389Z,13.93
2018-11-28T13:23:37.133Z,14.67
2018-11-28T13:26:05.798Z,14.37
2018-11-28T13:28:34.209Z,13.40
2018-11-28T13:31:02.346Z,14.80
2018-11-28T13:33:30.482Z,14.00
2018-11-28T13:35:58.943Z,14.00
2018-11-28T13:38:27.076Z,13.77
2018-11-28T13:40:55.437Z,15.23
2018-11-28T13:43:23.780Z,14.10
2018-11-28T13:45:51.919Z,13.80
2018-11-28T13:48:20.055Z,13.93
2018-11-28T13:50:48.207Z,14.10
2018-11-28T13:53:17.263Z,15.40
2018-11-28T13:56:57.292Z,14.00
2018-11-28T13:58:22.160Z,14.17
2018-11-28T14:00:50.353Z,14.80
2018-11-28T14:03:18.504Z,15.20
2018-11-28T14:05:46.677Z,14.23
2018-11-28T14:08:14.879Z,14.47
2018-11-28T14:10:43.044Z,15.20
2018-11-28T14:13:11.168Z,14.97
2018-11-28T14:15:39.256Z,15.33
2018-11-28T14:18:15.217Z,15.40
2018-11-28T14:20:43.667Z,15.87
2018-11-28T14:23:11.829Z,14.10
2018-11-28T14:25:40.021Z,15.37
2018-11-28T14:28:08.452Z,15.40
2018-11-28T14:30:37.270Z,15.80
2018-11-28T14:33:05.441Z,15.67
2018-11-28T14:35:33.808Z,14.83
2018-11-28T14:38:01.952Z,14.93
2018-11-28T14:40:30.139Z,14.97
2018-11-28T14:42:59.295Z,15.73
2018-11-28T14:45:28.293Z,16.80
2018-11-28T14:47:56.458Z,15.03
2018-11-28T14:50:25.634Z,15.67
2018-11-28T14:52:54.837Z,16.73
2018-11-28T14:55:25.031Z,16.80
2018-11-28T14:57:56.211Z,16.40
2018-11-28T15:00:26.404Z,17.80
2018-11-28T15:03:01.006Z,16.63
2018-11-28T15:05:38.542Z,18.00
2018-11-28T15:08:09.985Z,16.20
2018-11-28T15:10:42.052Z,17.07
2018-11-28T15:13:10.155Z,17.30
2018-11-28T15:15:38.453Z,17.70
2018-11-28T15:18:06.611Z,18.43
2018-11-28T15:20:34.804Z,18.53
2018-11-28T15:23:03.045Z,19.40
2018-11-28T15:25:31.211Z,17.27
2018-11-28T15:27:59.421Z,18.57
2018-11-28T15:30:27.569Z,19.17
2018-11-28T15:32:56.657Z,18.83
2018-11-28T15:35:25.557Z,19.47
2018-11-28T15:37:54.738Z,19.77
2018-11-28T15:40:23.309Z,18.60
2018-11-28T15:42:52.395Z,20.37
2018-11-28T15:45:22.143Z,20.57
2018-11-28T15:47:51.555Z,19.83
2018-11-28T15:50:20.673Z,20.53
2018-11-28T15:52:49.775Z,20.60
2018-11-28T15:55:18.808Z,21.43
2018-11-28T15:57:47.777Z,20.83
2018-11-28T16:00:22.431Z,20.93
2018-11-28T16:02:51.119Z,20.07
2018-11-28T16:05:19.261Z,21.13
2018-11-28T16:07:47.404Z,21.13
2018-11-28T16:10:21.229Z,20.83
2018-11-28T16:12:49.904Z,21.47
2018-11-28T16:15:19.551Z,20.60
2018-11-28T16:17:47.700Z,21.10
2018-11-28T16:20:17.047Z,20.13
2018-11-28T16:22:45.978Z,20.17
2018-11-28T16:25:14.223Z,19.47
2018-11-28T16:27:42.493Z,20.17
2018-11-28T16:30:13.718Z,20.57
2018-11-28T16:32:42.748Z,20.97
2018-11-28T16:35:12.111Z,21.20
2018-11-28T16:37:40.411Z,22.13
2018-11-28T16:40:09.926Z,20.50
2018-11-28T16:42:38.100Z,21.17
2018-11-28T16:45:24.197Z,21.43
2018-11-28T16:47:52.357Z,21.93
2018-11-28T16:50:20.888Z,22.63
2018-11-28T16:52:49.226Z,21.83
2018-11-28T16:55:17.769Z,22.63
2018-11-28T16:57:49.287Z,22.10
2018-11-28T17:00:22.140Z,22.87
2018-11-28T17:02:50.693Z,21.90
2018-11-28T17:05:20.832Z,21.40
2018-11-28T17:07:49.448Z,21.03
2018-11-28T17:10:19.627Z,20.93
2018-11-28T17:12:49.987Z,22.37
2018-11-28T17:15:19.043Z,20.27
2018-11-28T17:17:47.155Z,20.97
2018-11-28T17:20:20.363Z,20.80
2018-11-28T17:22:49.189Z,20.23
2018-11-28T17:25:18.700Z,20.87
2018-11-28T17:27:46.847Z,21.70
2018-11-28T17:30:18.725Z,20.40
2018-11-28T17:32:44.441Z,21.43
2018-11-28T17:35:13.525Z,21.80
2018-11-28T17:37:41.591Z,19.83
2018-11-28T17:40:25.798Z,20.03
2018-11-28T17:42:56.016Z,20.33
2018-11-28T17:45:24.249Z,20.93
2018-11-28T17:47:52.424Z,19.93
2018-11-28T17:50:21.664Z,19.47
2018-11-28T17:52:56.321Z,18.77
2018-11-28T17:55:25.132Z,19.17
2018-11-28T17:57:53.415Z,18.87
2018-11-28T18:00:21.629Z,18.60
2018-11-28T18:02:49.738Z,19.33
2018-11-28T18:05:17.852Z,18.97
2018-11-28T18:07:46.114Z,17.57
2018-11-28T18:10:16.448Z,18.20
2018-11-28T18:12:56.032Z,19.00
2018-11-28T18:15:24.176Z,17.47
2018-11-28T18:17:53.584Z,18.40
2018-11-28T18:20:22.053Z,17.20
2018-11-28T18:22:50.156Z,17.87
2018-11-28T18:25:18.348Z,18.13
2018-11-28T18:27:46.518Z,17.37
2018-11-28T18:30:14.623Z,17.47
2018-11-28T18:32:42.744Z,15.80
2018-11-28T18:35:11.392Z,15.90
2018-11-28T18:37:39.522Z,16.80
2018-11-28T18:40:10.933Z,16.67
2018-11-28T18:42:39.410Z,14.37
2018-11-28T18:45:13.020Z,15.00
2018-11-28T18:47:41.172Z,15.20
2018-11-28T18:50:10.361Z,15.70
2018-11-28T18:52:38.548Z,14.97
2018-11-28T18:55:16.775Z,15.43
2018-11-28T18:57:42.784Z,16.60
2018-11-28T19:00:13.658Z,14.83
2018-11-28T19:02:42.696Z,14.57
2018-11-28T19:05:10.095Z,15.13
2018-11-28T19:07:38.217Z,14.50
2018-11-28T19:10:10.481Z,14.17
2018-11-28T19:12:38.604Z,14.53
2018-11-28T19:15:10.408Z,15.58
2018-11-28T19:17:38.529Z,14.27
2018-11-28T19:20:11.844Z,15.80
2018-11-28T19:22:39.941Z,14.80
2018-11-28T19:25:09.461Z,14.40
2018-11-28T19:27:43.234Z,14.33
2018-11-28T19:30:46.640Z,14.57
2018-11-28T19:33:15.173Z,14.10
2018-11-28T19:35:43.270Z,14.57
2018-11-28T19:38:13.661Z,13.77
2018-11-28T19:40:57.613Z,14.90
2018-11-28T19:43:25.761Z,14.30
2018-11-28T19:45:53.912Z,14.40
2018-11-28T19:48:22.127Z,14.40
2018-11-28T19:50:50.259Z,13.70
2018-11-28T19:53:18.425Z,14.20
2018-11-28T19:55:46.577Z,13.60
2018-11-28T19:58:14.729Z,13.67
2018-11-28T20:00:45.064Z,13.43
2018-11-28T20:03:13.476Z,13.77
2018-11-28T20:05:41.608Z,13.60
2018-11-28T20:08:09.729Z,13.13
2018-11-28T20:10:37.898Z,12.90
2018-11-28T20:13:07.777Z,13.13
2018-11-28T20:15:36.012Z,13.63
2018-11-28T20:18:04.453Z,12.63
2018-11-28T20:20:32.565Z,12.47
2018-11-28T20:23:00.722Z,12.70
2018-11-28T20:25:28.912Z,12.40
2018-11-28T20:27:58.527Z,12.53
2018-11-28T20:30:36.455Z,12.00
2018-11-28T20:33:04.464Z,11.73
2018-11-28T20:35:32.573Z,11.37
2018-11-28T20:38:00.731Z,12.30
2018-11-28T20:40:28.961Z,12.30
2018-11-28T20:42:57.174Z,11.90
2018-11-28T20:45:25.475Z,11.53
2018-11-28T20:47:54.623Z,11.40
2018-11-28T20:50:25.518Z,11.67
2018-11-28T20:52:56.278Z,11.17
2018-11-28T20:55:24.376Z,10.60
2018-11-28T20:57:52.492Z,11.50
2018-11-28T21:00:22.081Z,9.90
2018-11-28T21:02:50.329Z,10.17
2018-11-28T21:05:18.473Z,9.83
2018-11-28T21:07:46.617Z,9.40
2018-11-28T21:10:21.166Z,9.90
2018-11-28T21:12:49.297Z,10.53
2018-11-28T21:15:17.472Z,9.77
2018-11-28T21:17:46.311Z,9.50
2018-11-28T21:20:17.549Z,9.50
2018-11-28T21:22:49.341Z,9.60
2018-11-28T21:25:17.460Z,9.60
2018-11-28T21:27:45.652Z,9.23
2018-11-28T21:30:15.646Z,9.20
2018-11-28T21:32:44.173Z,8.90
2018-11-28T21:35:16.365Z,8.60
2018-11-28T21:37:44.520Z,8.40
2018-11-28T21:40:12.816Z,8.07
2018-11-28T21:42:41.231Z,8.73
2018-11-28T21:45:11.125Z,8.57
2018-11-28T21:47:39.473Z,8.37
2018-11-28T21:50:11.533Z,7.70
2018-11-28T21:52:39.679Z,8.30
2018-11-28T21:55:10.150Z,7.37
2018-11-28T21:57:38.320Z,8.13
2018-11-28T22:00:12.175Z,7.53
2018-11-28T22:02:40.368Z,7.03
2018-11-28T22:05:10.148Z,7.77
2018-11-28T22:07:38.314Z,7.23
2018-11-28T22:10:09.152Z,7.03
2018-11-28T22:12:37.532Z,7.10
2018-11-28T22:15:07.828Z,6.43
2018-11-28T22:17:36.056Z,7.50
2018-11-28T22:20:04.563Z,7.73
2018-11-28T22:22:32.740Z,7.23
2018-11-28T22:25:00.903Z,7.70
2018-11-28T22:27:29.065Z,7.70
2018-11-28T22:29:57.217Z,7.03
2018-11-28T22:32:25.409Z,7.10
2018-11-28T22:34:53.767Z,6.83
2018-11-28T22:37:21.884Z,6.73
2018-11-28T22:39:49.995Z,7.30
2018-11-28T22:42:18.166Z,6.37
2018-11-28T22:44:46.335Z,6.63
2018-11-28T22:47:14.485Z,6.60
2018-11-28T22:49:42.686Z,7.13
2018-11-28T22:52:10.882Z,7.27
2018-11-28T22:54:39.095Z,6.67
2018-11-28T22:57:07.253Z,7.10
2018-11-28T22:59:35.708Z,6.50
2018-11-28T23:02:40.627Z,6.70
2018-11-28T23:05:08.921Z,6.70
2018-11-28T23:07:37.068Z,8.30
2018-11-28T23:10:05.320Z,6.43
2018-11-28T23:12:33.473Z,6.67
2018-11-28T23:15:01.846Z,6.63
2018-11-28T23:17:29.970Z,6.47
2018-11-28T23:19:58.124Z,6.90
2018-11-28T23:22:26.252Z,6.33
2018-11-28T23:24:54.357Z,6.67
2018-11-28T23:27:22.548Z,6.60
2018-11-28T23:29:50.676Z,6.17
2018-11-28T23:32:18.807Z,6.57
2018-11-28T23:34:47.032Z,6.10
2018-11-28T23:37:15.188Z,6.50
2018-11-28T23:39:43.306Z,6.43
2018-11-28T23:42:11.765Z,6.30
2018-11-28T23:44:39.901Z,6.40
2018-11-28T23:47:08.057Z,6.33
2018-11-28T23:49:36.464Z,6.60
2018-11-28T23:52:04.739Z,6.23
2018-11-28T23:54:32.884Z,6.80
2018-11-28T23:57:01.029Z,6.20
2018-11-28T23:59:29.158Z,6.40
